createdAt,value
2022-11-03T00:00:06.587Z,3.23
2022-11-03T00:02:57.139Z,2.43
2022-11-03T00:06:02.963Z,2.67
2022-11-03T00:08:49.909Z,2.73
2022-11-03T00:11:38.752Z,2.60
2022-11-03T00:14:25.732Z,2.57
2022-11-03T00:17:12.696Z,2.83
2022-11-03T00:19:59.653Z,3.03
2022-11-03T00:22:46.651Z,2.70
2022-11-03T00:25:33.622Z,2.73
2022-11-03T00:28:20.574Z,2.83
2022-11-03T00:31:10.847Z,3.17
2022-11-03T00:33:58.714Z,2.53
2022-11-03T00:36:45.708Z,2.53
2022-11-03T00:39:32.726Z,2.93
2022-11-03T00:42:19.665Z,2.97
2022-11-03T00:45:07.302Z,2.90
2022-11-03T00:48:14.919Z,2.70
2022-11-03T00:51:14.166Z,2.40
2022-11-03T00:54:02.257Z,2.87
2022-11-03T00:56:49.192Z,2.60
2022-11-03T00:59:36.169Z,3.10
2022-11-03T01:02:23.173Z,2.40
2022-11-03T01:05:29.259Z,2.43
2022-11-03T01:08:16.237Z,2.57
2022-11-03T01:11:33.534Z,2.90
2022-11-03T01:14:20.616Z,2.10
2022-11-03T01:17:10.528Z,2.47
2022-11-03T01:19:57.523Z,2.40
2022-11-03T01:22:45.319Z,2.90
2022-11-03T01:25:32.639Z,2.80
2022-11-03T01:28:19.598Z,2.67
2022-11-03T01:31:08.960Z,2.97
2022-11-03T01:33:57.197Z,2.90
2022-11-03T01:36:44.731Z,3.27
2022-11-03T01:39:31.785Z,2.80
2022-11-03T01:42:18.736Z,2.90
2022-11-03T01:45:06.056Z,2.93
2022-11-03T01:47:53.190Z,3.10
2022-11-03T01:50:42.669Z,3.20
2022-11-03T01:53:30.992Z,3.07
2022-11-03T01:56:18.650Z,2.90
2022-11-03T01:59:05.618Z,3.40
2022-11-03T02:01:52.720Z,3.43
2022-11-03T02:04:40.562Z,2.70
2022-11-03T02:07:49.594Z,3.50
2022-11-03T02:10:37.370Z,3.20
2022-11-03T02:13:26.682Z,2.90
2022-11-03T02:16:14.850Z,2.57
2022-11-03T02:19:04.258Z,2.90
2022-11-03T02:22:06.686Z,3.13
2022-11-03T02:25:09.363Z,2.97
2022-11-03T02:27:56.691Z,2.50
2022-11-03T02:31:14.345Z,2.80
2022-11-03T02:34:19.614Z,3.00
2022-11-03T02:37:16.749Z,3.00
2022-11-03T02:40:09.747Z,2.70
2022-11-03T02:42:58.630Z,2.57
2022-11-03T02:45:48.161Z,2.73
2022-11-03T02:48:35.157Z,3.27
2022-11-03T02:51:22.079Z,2.90
2022-11-03T02:54:14.592Z,3.07
2022-11-03T02:57:25.258Z,2.87
2022-11-03T03:00:13.309Z,2.90
2022-11-03T03:03:07.611Z,2.77
2022-11-03T03:06:01.041Z,3.17
2022-11-03T03:08:53.631Z,3.03
2022-11-03T03:11:43.601Z,3.60
2022-11-03T03:14:43.136Z,2.80
2022-11-03T03:17:53.789Z,2.80
2022-11-03T03:21:03.194Z,3.30
2022-11-03T03:23:58.091Z,3.10
2022-11-03T03:26:49.603Z,2.93
2022-11-03T03:29:50.816Z,2.73
2022-11-03T03:32:41.058Z,2.80
2022-11-03T03:35:30.836Z,3.00
2022-11-03T03:38:25.219Z,2.87
2022-11-03T03:41:22.096Z,2.90
2022-11-03T03:44:11.543Z,2.67
2022-11-03T03:47:07.587Z,2.83
2022-11-03T03:49:55.528Z,3.57
2022-11-03T03:52:42.589Z,2.70
2022-11-03T03:55:46.504Z,3.13
2022-11-03T03:58:33.504Z,2.83
2022-11-03T04:01:20.534Z,3.00
2022-11-03T04:04:07.696Z,2.93
2022-11-03T04:07:14.680Z,2.37
2022-11-03T04:10:01.613Z,2.53
2022-11-03T04:13:07.723Z,2.77
2022-11-03T04:16:13.585Z,2.40
2022-11-03T04:19:19.157Z,3.17
2022-11-03T04:22:18.140Z,2.90
2022-11-03T04:25:05.533Z,3.10
2022-11-03T04:27:52.504Z,2.60
2022-11-03T04:30:39.610Z,2.60
2022-11-03T04:33:28.165Z,2.80
2022-11-03T04:36:17.354Z,2.40
2022-11-03T04:39:18.956Z,2.70
2022-11-03T04:42:32.900Z,2.87
2022-11-03T04:45:25.727Z,2.57
2022-11-03T04:48:24.416Z,2.53
2022-11-03T04:51:16.949Z,3.30
2022-11-03T04:54:12.347Z,2.60
2022-11-03T04:56:59.761Z,2.50
2022-11-03T04:59:49.912Z,2.57
2022-11-03T05:02:36.961Z,2.47
2022-11-03T05:05:26.420Z,2.30
2022-11-03T05:08:13.453Z,2.63
2022-11-03T05:11:01.179Z,3.07
2022-11-03T05:13:48.853Z,2.87
2022-11-03T05:16:36.035Z,2.57
2022-11-03T05:19:27.198Z,2.60
2022-11-03T05:22:19.925Z,2.50
2022-11-03T05:25:32.474Z,3.07
2022-11-03T05:28:27.516Z,2.33
2022-11-03T05:31:20.513Z,3.03
2022-11-03T05:34:30.680Z,2.50
2022-11-03T05:37:35.744Z,3.47
2022-11-03T05:40:25.379Z,2.77
2022-11-03T05:43:14.520Z,3.13
2022-11-03T05:46:03.463Z,2.60
2022-11-03T05:48:51.162Z,2.80
2022-11-03T05:51:40.488Z,2.20
2022-11-03T05:54:32.324Z,2.57
2022-11-03T05:57:20.075Z,2.10
2022-11-03T06:00:21.590Z,2.40
2022-11-03T06:03:14.778Z,2.60
2022-11-03T06:06:02.649Z,1.93
2022-11-03T06:08:50.503Z,2.27
2022-11-03T06:11:37.727Z,2.50
2022-11-03T06:14:27.020Z,2.50
2022-11-03T06:17:24.142Z,2.43
2022-11-03T06:20:18.632Z,2.57
2022-11-03T06:23:15.730Z,2.60
2022-11-03T06:26:04.072Z,2.53
2022-11-03T06:28:52.037Z,2.60
2022-11-03T06:31:39.169Z,2.60
2022-11-03T06:34:43.297Z,2.40
2022-11-03T06:37:34.699Z,2.30
2022-11-03T06:40:22.171Z,2.37
2022-11-03T06:43:16.374Z,2.30
2022-11-03T06:46:18.726Z,3.33
2022-11-03T06:49:35.719Z,2.43
2022-11-03T06:52:22.605Z,5.37
2022-11-03T06:55:16.700Z,2.67
2022-11-03T06:58:23.236Z,3.43
2022-11-03T07:01:16.187Z,3.53
2022-11-03T07:04:28.473Z,2.60
2022-11-03T07:07:15.521Z,2.03
2022-11-03T07:10:02.497Z,2.60
2022-11-03T07:12:49.440Z,3.07
2022-11-03T07:15:38.195Z,2.27
2022-11-03T07:18:35.456Z,2.20
2022-11-03T07:21:37.957Z,2.57
2022-11-03T07:24:24.966Z,2.20
2022-11-03T07:27:26.779Z,2.53
2022-11-03T07:30:23.883Z,2.40
2022-11-03T07:33:24.179Z,2.77
2022-11-03T07:36:18.147Z,2.90
2022-11-03T07:39:09.889Z,2.50
2022-11-03T07:41:57.047Z,2.43
2022-11-03T07:44:44.498Z,2.50
2022-11-03T07:47:31.452Z,3.40
2022-11-03T07:50:20.207Z,3.00
2022-11-03T07:53:16.606Z,3.17
2022-11-03T07:56:15.406Z,2.40
2022-11-03T07:59:19.203Z,2.70
2022-11-03T08:02:29.707Z,2.90
2022-11-03T08:05:16.830Z,2.63
2022-11-03T08:08:04.347Z,2.20
2022-11-03T08:10:52.706Z,2.57
2022-11-03T08:13:39.733Z,2.70
2022-11-03T08:16:26.787Z,2.60
2022-11-03T08:19:13.746Z,2.53
2022-11-03T08:22:00.892Z,2.37
2022-11-03T08:24:47.841Z,2.97
2022-11-03T08:27:34.785Z,2.83
2022-11-03T08:30:21.786Z,2.60
2022-11-03T08:33:09.205Z,2.73
2022-11-03T08:35:56.311Z,2.60
2022-11-03T08:38:43.316Z,2.43
2022-11-03T08:41:30.391Z,2.70
2022-11-03T08:44:17.426Z,2.40
2022-11-03T08:47:04.552Z,2.53
2022-11-03T08:49:51.517Z,2.10
2022-11-03T08:52:38.616Z,2.90
2022-11-03T08:55:25.791Z,2.47
2022-11-03T08:58:12.964Z,2.17
2022-11-03T09:00:59.948Z,2.53
2022-11-03T09:03:46.954Z,2.27
2022-11-03T09:06:33.942Z,2.13
2022-11-03T09:12:28.275Z,2.80
2022-11-03T09:15:15.302Z,2.60
2022-11-03T09:18:02.400Z,2.47
2022-11-03T09:20:50.149Z,2.47
2022-11-03T09:23:37.164Z,1.93
2022-11-03T09:26:24.102Z,2.67
2022-11-03T09:29:11.097Z,2.43
2022-11-03T09:31:58.575Z,3.00
2022-11-03T09:34:45.644Z,2.63
2022-11-03T09:37:32.600Z,2.30
2022-11-03T09:40:21.509Z,2.47
2022-11-03T09:43:09.158Z,2.40
2022-11-03T09:45:56.471Z,2.30
2022-11-03T09:48:43.583Z,2.67
2022-11-03T09:51:31.416Z,2.67
2022-11-03T09:54:18.421Z,2.20
2022-11-03T09:57:16.315Z,2.33
2022-11-03T10:00:04.869Z,2.13
2022-11-03T10:02:51.861Z,2.40
2022-11-03T10:05:39.817Z,2.00
2022-11-03T10:08:32.096Z,2.93
2022-11-03T10:11:19.045Z,3.20
2022-11-03T10:14:10.124Z,2.43
2022-11-03T10:17:00.366Z,2.33
2022-11-03T10:19:53.098Z,2.60
2022-11-03T10:22:41.461Z,2.63
2022-11-03T10:25:42.761Z,2.40
2022-11-03T10:28:29.736Z,2.50
2022-11-03T10:31:21.279Z,2.53
2022-11-03T10:34:37.855Z,2.50
2022-11-03T10:37:26.297Z,2.47
2022-11-03T10:40:49.993Z,2.83
2022-11-03T10:43:38.318Z,2.03
2022-11-03T10:49:39.340Z,1.87
2022-11-03T10:52:30.285Z,2.70
2022-11-03T10:55:23.827Z,2.77
2022-11-03T10:58:12.440Z,2.70
2022-11-03T11:01:00.215Z,2.60
2022-11-03T11:03:47.577Z,2.47
2022-11-03T11:06:34.583Z,2.50
2022-11-03T11:09:26.722Z,2.57
2022-11-03T11:12:21.789Z,3.60
2022-11-03T11:15:39.923Z,2.37
2022-11-03T11:18:29.804Z,2.47
2022-11-03T11:21:17.643Z,2.13
2022-11-03T11:24:04.870Z,2.43
2022-11-03T11:26:51.830Z,2.53
2022-11-03T11:29:38.802Z,2.70
2022-11-03T11:32:48.580Z,2.13
2022-11-03T11:35:35.547Z,2.30
2022-11-03T11:38:44.938Z,2.50
2022-11-03T11:42:05.890Z,2.93
2022-11-03T11:45:02.859Z,2.43
2022-11-03T11:47:50.710Z,2.03
2022-11-03T11:50:37.768Z,2.40
2022-11-03T11:53:30.718Z,2.20
2022-11-03T11:56:19.031Z,2.37
2022-11-03T11:59:06.026Z,2.30
2022-11-03T12:01:56.672Z,2.30
2022-11-03T12:04:47.238Z,2.37
2022-11-03T12:07:35.793Z,2.80
2022-11-03T12:10:28.450Z,2.30
2022-11-03T12:13:43.668Z,2.40
2022-11-03T12:16:31.786Z,2.37
2022-11-03T12:19:34.494Z,1.90
2022-11-03T12:22:24.524Z,2.33
2022-11-03T12:25:36.026Z,2.20
2022-11-03T12:28:36.041Z,2.70
2022-11-03T12:31:23.342Z,2.37
2022-11-03T12:34:10.316Z,2.50
2022-11-03T12:36:58.461Z,2.70
2022-11-03T12:39:45.482Z,2.20
2022-11-03T12:42:32.662Z,2.90
2022-11-03T12:45:19.620Z,2.40
2022-11-03T12:48:07.382Z,2.83
2022-11-03T12:50:54.380Z,2.53
2022-11-03T12:53:42.087Z,2.60
2022-11-03T12:56:29.066Z,2.97
2022-11-03T12:59:16.004Z,2.73
2022-11-03T13:02:03.071Z,2.20
2022-11-03T13:04:50.483Z,2.10
2022-11-03T13:07:37.468Z,2.10
2022-11-03T13:10:24.404Z,3.17
2022-11-03T13:13:11.554Z,2.50
2022-11-03T13:15:58.498Z,2.70
2022-11-03T13:18:45.439Z,2.57
2022-11-03T13:21:32.366Z,2.30
2022-11-03T13:24:19.319Z,2.50
2022-11-03T13:27:06.365Z,2.77
2022-11-03T13:29:55.487Z,2.70
2022-11-03T13:32:42.453Z,2.60
2022-11-03T13:35:29.518Z,2.23
2022-11-03T13:38:16.641Z,2.57
2022-11-03T13:41:08.672Z,2.30
2022-11-03T13:43:56.076Z,2.70
2022-11-03T13:46:43.280Z,2.60
2022-11-03T13:50:12.498Z,2.40
2022-11-03T13:52:37.283Z,2.67
2022-11-03T14:01:39.225Z,2.20
2022-11-03T14:04:43.802Z,2.97
2022-11-03T14:07:31.566Z,2.43
2022-11-03T14:10:18.975Z,2.30
2022-11-03T14:13:06.271Z,2.23
2022-11-03T14:15:53.441Z,2.60
2022-11-03T14:18:40.418Z,2.30
2022-11-03T14:21:27.351Z,2.60
2022-11-03T14:24:14.299Z,2.73
2022-11-03T14:27:01.448Z,2.47
2022-11-03T14:29:51.761Z,2.90
2022-11-03T14:32:39.063Z,2.87
2022-11-03T14:35:26.004Z,2.93
2022-11-03T14:38:12.951Z,3.40
2022-11-03T14:41:18.815Z,2.87
2022-11-03T14:44:06.198Z,2.57
2022-11-03T14:46:53.114Z,3.00
2022-11-03T14:49:40.423Z,2.80
2022-11-03T14:52:27.453Z,2.53
2022-11-03T14:55:14.444Z,2.53
2022-11-03T14:58:01.489Z,3.47
2022-11-03T15:00:48.869Z,3.30
2022-11-03T15:03:35.853Z,4.57
2022-11-03T15:06:23.039Z,4.47
2022-11-03T15:09:10.525Z,2.57
2022-11-03T15:11:57.517Z,2.70
2022-11-03T15:14:44.462Z,2.70
2022-11-03T15:17:31.453Z,3.30
2022-11-03T15:20:18.537Z,3.20
2022-11-03T15:26:13.910Z,2.83
2022-11-03T15:29:00.846Z,3.17
2022-11-03T15:31:48.623Z,3.00
2022-11-03T15:34:35.828Z,2.63
2022-11-03T15:37:22.779Z,3.30
2022-11-03T15:40:14.420Z,3.03
2022-11-03T15:43:03.177Z,3.00
2022-11-03T15:45:50.351Z,3.33
2022-11-03T15:48:38.102Z,4.47
2022-11-03T15:51:25.260Z,4.00
2022-11-03T15:54:12.244Z,3.43
2022-11-03T15:56:59.403Z,3.47
2022-11-03T15:59:46.482Z,2.93
2022-11-03T16:02:41.453Z,3.30
2022-11-03T16:05:28.937Z,2.77
2022-11-03T16:08:15.862Z,3.17
2022-11-03T16:11:02.809Z,3.30
2022-11-03T16:13:49.776Z,3.50
2022-11-03T16:16:36.755Z,3.37
2022-11-03T16:19:23.747Z,3.30
2022-11-03T16:22:11.230Z,3.03
2022-11-03T16:24:58.180Z,3.83
2022-11-03T16:27:45.115Z,3.40
2022-11-03T16:30:33.422Z,4.63
2022-11-03T16:33:20.372Z,4.50
2022-11-03T16:36:07.619Z,3.50
2022-11-03T16:38:54.716Z,3.80
2022-11-03T16:41:41.697Z,3.60
2022-11-03T16:44:28.962Z,5.20
2022-11-03T16:47:16.131Z,4.20
2022-11-03T16:50:03.183Z,4.40
2022-11-03T16:52:50.599Z,3.27
2022-11-03T16:55:37.516Z,3.40
2022-11-03T16:58:24.600Z,2.97
2022-11-03T17:01:11.844Z,3.93
2022-11-03T17:03:58.952Z,3.53
2022-11-03T17:06:45.891Z,3.40
2022-11-03T17:09:32.819Z,3.53
2022-11-03T17:12:19.764Z,3.07
2022-11-03T17:15:07.151Z,3.60
2022-11-03T17:17:54.224Z,3.10
2022-11-03T17:20:41.160Z,3.67
2022-11-03T17:23:28.111Z,3.00
2022-11-03T17:26:16.184Z,3.23
2022-11-03T17:29:03.325Z,2.97
2022-11-03T17:31:51.390Z,3.10
2022-11-03T17:34:38.822Z,3.20
2022-11-03T17:37:26.641Z,2.80
2022-11-03T17:40:21.643Z,3.07
2022-11-03T17:43:38.027Z,2.63
2022-11-03T17:46:24.954Z,3.80
2022-11-03T17:49:11.914Z,3.00
2022-11-03T17:51:59.335Z,2.83
2022-11-03T17:54:46.600Z,3.27
2022-11-03T17:57:33.702Z,3.03
2022-11-03T18:00:21.626Z,2.90
2022-11-03T18:03:14.905Z,2.67
2022-11-03T18:06:02.031Z,3.47
2022-11-03T18:08:49.441Z,3.00
2022-11-03T18:11:58.084Z,3.20
2022-11-03T18:14:45.018Z,2.70
2022-11-03T18:17:32.569Z,3.10
2022-11-03T18:20:30.621Z,2.90
2022-11-03T18:23:26.052Z,2.80
2022-11-03T18:26:20.877Z,3.20
2022-11-03T18:29:08.770Z,2.80
2022-11-03T18:31:57.097Z,3.40
2022-11-03T18:34:44.229Z,2.83
2022-11-03T18:37:32.643Z,2.77
2022-11-03T18:40:20.468Z,3.00
2022-11-03T18:43:17.000Z,3.00
2022-11-03T18:46:03.959Z,3.03
2022-11-03T18:48:51.328Z,2.80
2022-11-03T18:51:38.742Z,2.30
2022-11-03T18:54:28.198Z,2.47
2022-11-03T18:57:17.766Z,2.80
2022-11-03T19:00:19.050Z,2.83
2022-11-03T19:03:11.879Z,2.73
2022-11-03T19:05:59.019Z,2.30
2022-11-03T19:08:47.111Z,3.17
2022-11-03T19:11:34.077Z,3.60
2022-11-03T19:14:40.952Z,3.50
2022-11-03T19:17:30.489Z,2.47
2022-11-03T19:20:18.391Z,2.83
2022-11-03T19:23:05.697Z,2.80
2022-11-03T19:25:58.251Z,2.80
2022-11-03T19:28:47.244Z,2.93
2022-11-03T19:31:38.280Z,3.03
2022-11-03T19:34:28.170Z,3.17
2022-11-03T19:37:15.586Z,2.87
2022-11-03T19:40:05.808Z,2.60
2022-11-03T19:42:53.112Z,3.10
2022-11-03T19:45:40.115Z,2.80
2022-11-03T19:48:33.164Z,3.17
2022-11-03T19:51:20.357Z,2.93
2022-11-03T19:54:17.911Z,3.13
2022-11-03T19:57:09.810Z,3.00
2022-11-03T19:59:59.045Z,2.83
2022-11-03T20:02:46.786Z,2.97
2022-11-03T20:05:34.186Z,3.30
2022-11-03T20:08:24.062Z,3.23
2022-11-03T20:11:11.329Z,3.40
2022-11-03T20:13:58.333Z,3.00
2022-11-03T20:16:45.380Z,2.80
2022-11-03T20:19:32.324Z,2.63
2022-11-03T20:22:29.571Z,2.70
2022-11-03T20:25:27.108Z,3.03
2022-11-03T20:28:19.608Z,3.03
2022-11-03T20:31:07.676Z,3.37
2022-11-03T20:33:54.805Z,3.50
2022-11-03T20:36:42.436Z,2.90
2022-11-03T20:39:29.447Z,3.60
2022-11-03T20:42:23.374Z,3.27
2022-11-03T20:45:13.203Z,3.20
2022-11-03T20:48:00.157Z,3.40
2022-11-03T20:50:47.300Z,3.20
2022-11-03T20:53:34.411Z,3.73
2022-11-03T20:56:24.966Z,3.33
2022-11-03T20:59:24.376Z,3.20
2022-11-03T21:02:12.829Z,3.30
2022-11-03T21:05:00.043Z,3.40
2022-11-03T21:07:47.585Z,3.20
2022-11-03T21:10:34.615Z,2.87
2022-11-03T21:13:21.927Z,3.23
2022-11-03T21:16:28.976Z,3.37
2022-11-03T21:19:38.739Z,3.10
2022-11-03T21:25:39.494Z,4.07
2022-11-03T21:28:26.536Z,3.23
2022-11-03T21:31:14.468Z,3.30
2022-11-03T21:34:01.487Z,3.43
2022-11-03T21:36:48.449Z,3.97
2022-11-03T21:39:35.392Z,3.53
2022-11-03T21:42:41.219Z,3.40
2022-11-03T21:45:28.406Z,3.30
2022-11-03T21:48:34.138Z,3.53
2022-11-03T21:51:21.486Z,3.43
2022-11-03T21:54:08.430Z,3.57
2022-11-03T21:56:55.448Z,3.23
2022-11-03T21:59:42.475Z,3.77
2022-11-03T22:02:30.379Z,3.60
2022-11-03T22:05:17.499Z,3.47
2022-11-03T22:08:07.360Z,3.57
2022-11-03T22:10:54.398Z,3.03
2022-11-03T22:13:41.402Z,3.57
2022-11-03T22:16:39.720Z,3.67
2022-11-03T22:19:45.578Z,3.37
2022-11-03T22:22:51.437Z,3.37
2022-11-03T22:25:57.137Z,3.87
2022-11-03T22:28:44.079Z,3.87
2022-11-03T22:31:40.851Z,3.90
2022-11-03T22:34:46.253Z,3.67
2022-11-03T22:40:40.943Z,3.40
2022-11-03T22:43:46.936Z,4.00
2022-11-03T22:46:34.103Z,2.97
2022-11-03T22:49:21.099Z,3.63
2022-11-03T22:52:09.714Z,3.73
2022-11-03T22:54:56.665Z,3.73
2022-11-03T22:57:43.618Z,3.87
2022-11-03T23:00:30.550Z,3.80
2022-11-03T23:03:17.487Z,4.10
2022-11-03T23:06:06.915Z,4.00
2022-11-03T23:08:55.114Z,4.67
2022-11-03T23:11:42.215Z,3.90
2022-11-03T23:14:49.159Z,4.00
2022-11-03T23:17:54.510Z,4.10
2022-11-03T23:21:00.244Z,4.03
2022-11-03T23:24:05.961Z,4.23
2022-11-03T23:26:52.972Z,4.10
2022-11-03T23:29:40.061Z,4.57
2022-11-03T23:32:27.107Z,4.73
2022-11-03T23:35:14.631Z,3.77
2022-11-03T23:38:01.595Z,3.73
2022-11-03T23:40:48.559Z,4.00
2022-11-03T23:43:35.906Z,4.60
2022-11-03T23:46:44.265Z,4.10
2022-11-03T23:49:31.233Z,4.20
2022-11-03T23:52:18.271Z,4.10
2022-11-03T23:55:05.704Z,3.90
2022-11-03T23:58:11.565Z,3.70
